createdAt,value
2023-02-15T00:00:01.014Z,21.23
2023-02-15T00:02:27.834Z,18.88
2023-02-15T00:04:56.692Z,23.02
2023-02-15T00:07:23.618Z,19.73
2023-02-15T00:09:50.340Z,19.05
2023-02-15T00:12:17.588Z,21.05
2023-02-15T00:14:44.339Z,19.20
2023-02-15T00:17:11.478Z,19.35
2023-02-15T00:19:38.312Z,18.45
2023-02-15T00:22:05.070Z,21.67
2023-02-15T00:24:31.867Z,18.42
2023-02-15T00:26:59.012Z,18.10
2023-02-15T00:29:26.149Z,16.05
2023-02-15T00:31:53.580Z,16.80
2023-02-15T00:34:23.224Z,16.98
2023-02-15T00:36:50.546Z,17.30
2023-02-15T00:39:20.935Z,16.45
2023-02-15T00:41:48.540Z,14.77
2023-02-15T00:44:15.515Z,15.25
2023-02-15T00:46:43.047Z,14.25
2023-02-15T00:49:10.684Z,13.98
2023-02-15T00:51:38.943Z,14.05
2023-02-15T00:54:05.845Z,13.95
2023-02-15T00:56:32.659Z,15.88
2023-02-15T00:58:59.433Z,16.05
2023-02-15T01:01:27.144Z,15.25
2023-02-15T01:03:54.323Z,15.35
2023-02-15T01:06:21.558Z,17.30
2023-02-15T01:08:48.793Z,17.75
2023-02-15T01:11:24.925Z,17.77
2023-02-15T01:13:55.098Z,20.33
2023-02-15T01:16:22.796Z,17.42
2023-02-15T01:18:49.728Z,18.15
2023-02-15T01:21:19.573Z,17.08
2023-02-15T01:23:46.610Z,18.15
2023-02-15T01:26:14.426Z,18.50
2023-02-15T01:28:43.890Z,20.77
2023-02-15T01:31:14.018Z,21.35
2023-02-15T01:33:41.098Z,20.58
2023-02-15T01:36:10.484Z,20.40
2023-02-15T01:38:40.789Z,18.08
2023-02-15T01:41:27.606Z,19.73
2023-02-15T01:43:58.501Z,18.73
2023-02-15T01:46:36.310Z,22.30
2023-02-15T01:49:16.552Z,24.52
2023-02-15T01:51:46.383Z,17.95
2023-02-15T01:54:28.721Z,16.48
2023-02-15T01:57:03.581Z,19.67
2023-02-15T01:59:34.337Z,19.52
2023-02-15T02:02:02.761Z,22.65
2023-02-15T02:05:07.697Z,20.92
2023-02-15T02:07:39.343Z,16.88
2023-02-15T02:10:08.232Z,30.23
2023-02-15T02:12:36.455Z,28.75
2023-02-15T02:15:03.968Z,25.30
2023-02-15T02:18:05.739Z,24.45
2023-02-15T02:21:07.876Z,22.92
2023-02-15T02:23:48.692Z,21.50
2023-02-15T02:26:30.556Z,19.90
2023-02-15T02:29:16.949Z,20.73
2023-02-15T02:32:22.404Z,17.83
2023-02-15T02:35:09.013Z,17.52
2023-02-15T02:37:52.851Z,16.77
2023-02-15T02:40:52.085Z,18.55
2023-02-15T02:43:30.455Z,15.05
2023-02-15T02:46:27.238Z,16.13
2023-02-15T02:48:56.197Z,18.08
2023-02-15T02:51:23.435Z,19.23
2023-02-15T02:53:58.248Z,28.30
2023-02-15T02:56:30.269Z,29.15
2023-02-15T02:59:15.681Z,30.80
2023-02-15T03:01:49.508Z,29.15
2023-02-15T03:04:21.981Z,30.38
2023-02-15T03:06:54.772Z,27.27
2023-02-15T03:09:42.923Z,25.88
2023-02-15T03:12:17.836Z,20.52
2023-02-15T03:14:51.472Z,19.85
2023-02-15T03:17:21.479Z,17.25
2023-02-15T03:19:53.278Z,15.75
2023-02-15T03:22:26.868Z,14.15
2023-02-15T03:24:58.779Z,14.18
2023-02-15T03:27:32.400Z,13.10
2023-02-15T03:30:04.654Z,13.73
2023-02-15T03:32:35.983Z,14.30
2023-02-15T03:37:41.902Z,12.88
2023-02-15T03:40:43.747Z,14.10
2023-02-15T03:43:29.249Z,13.95
2023-02-15T03:46:02.505Z,13.88
2023-02-15T03:48:36.278Z,13.57
2023-02-15T03:51:27.910Z,14.88
2023-02-15T03:53:55.967Z,14.73
2023-02-15T03:56:22.901Z,14.65
2023-02-15T03:59:08.337Z,12.30
2023-02-15T04:01:59.126Z,11.90
2023-02-15T04:04:32.636Z,14.48
2023-02-15T04:07:04.002Z,11.00
2023-02-15T04:09:49.369Z,13.18
2023-02-15T04:12:16.359Z,11.43
2023-02-15T04:15:01.622Z,11.82
2023-02-15T04:17:28.821Z,11.23
2023-02-15T04:20:14.294Z,11.18
2023-02-15T04:23:00.138Z,10.70
2023-02-15T04:25:27.094Z,9.68
2023-02-15T04:27:56.375Z,10.88
2023-02-15T04:30:26.461Z,12.52
2023-02-15T04:32:56.197Z,12.07
2023-02-15T04:35:23.450Z,13.63
2023-02-15T04:37:50.234Z,11.52
2023-02-15T04:40:19.510Z,13.57
2023-02-15T04:42:50.281Z,14.05
2023-02-15T04:45:18.070Z,12.88
2023-02-15T04:47:45.610Z,11.52
2023-02-15T04:50:12.786Z,13.40
2023-02-15T04:52:39.845Z,14.77
2023-02-15T04:55:07.215Z,12.80
2023-02-15T04:57:34.350Z,15.23
2023-02-15T05:00:01.542Z,15.38
2023-02-15T05:02:28.468Z,17.02
2023-02-15T05:04:55.232Z,16.77
2023-02-15T05:07:22.012Z,17.02
2023-02-15T05:09:49.247Z,17.67
2023-02-15T05:12:16.183Z,17.92
2023-02-15T05:14:42.981Z,19.52
2023-02-15T05:17:09.765Z,19.50
2023-02-15T05:19:36.673Z,19.02
2023-02-15T05:22:03.482Z,16.27
2023-02-15T05:24:49.078Z,14.27
2023-02-15T05:27:34.774Z,13.45
2023-02-15T05:30:01.869Z,13.75
2023-02-15T05:32:28.826Z,13.07
2023-02-15T05:34:55.656Z,14.23
2023-02-15T05:37:22.385Z,11.60
2023-02-15T05:39:49.186Z,11.88
2023-02-15T05:42:16.045Z,13.63
2023-02-15T05:44:42.909Z,14.35
2023-02-15T05:47:09.903Z,16.45
2023-02-15T05:49:37.069Z,15.63
2023-02-15T05:52:04.640Z,13.82
2023-02-15T05:54:31.392Z,15.50
2023-02-15T05:56:58.220Z,15.32
2023-02-15T05:59:25.143Z,12.93
2023-02-15T06:01:51.999Z,14.45
2023-02-15T06:04:18.790Z,13.85
2023-02-15T06:06:45.604Z,14.85
2023-02-15T06:09:13.739Z,16.05
2023-02-15T06:11:41.087Z,14.77
2023-02-15T06:14:07.875Z,14.30
2023-02-15T06:16:34.721Z,14.75
2023-02-15T06:19:02.498Z,15.80
2023-02-15T06:21:30.162Z,13.27
2023-02-15T06:23:56.955Z,14.95
2023-02-15T06:26:23.794Z,14.13
2023-02-15T06:28:50.548Z,15.00
2023-02-15T06:31:17.450Z,15.05
2023-02-15T06:33:44.280Z,15.48
2023-02-15T06:36:11.230Z,16.88
2023-02-15T06:38:38.033Z,18.35
2023-02-15T06:41:04.881Z,21.20
2023-02-15T06:43:31.619Z,24.52
2023-02-15T06:45:59.373Z,26.75
2023-02-15T06:48:26.199Z,25.92
2023-02-15T06:50:53.627Z,23.15
2023-02-15T06:53:20.295Z,24.48
2023-02-15T06:55:47.060Z,22.40
2023-02-15T06:58:13.828Z,19.45
2023-02-15T07:00:40.590Z,19.35
2023-02-15T07:03:07.579Z,15.57
2023-02-15T07:05:35.665Z,14.63
2023-02-15T07:08:02.918Z,13.30
2023-02-15T07:10:30.134Z,14.68
2023-02-15T07:12:58.273Z,12.30
2023-02-15T07:15:25.458Z,12.00
2023-02-15T07:17:52.897Z,11.07
2023-02-15T07:20:24.215Z,12.02
2023-02-15T07:25:18.866Z,10.48
2023-02-15T07:27:46.060Z,14.63
2023-02-15T07:30:16.341Z,11.88
2023-02-15T07:33:04.637Z,13.30
2023-02-15T07:35:31.792Z,13.23
2023-02-15T07:37:58.569Z,12.40
2023-02-15T07:40:25.694Z,15.23
2023-02-15T07:42:56.018Z,14.57
2023-02-15T07:45:23.301Z,18.25
2023-02-15T07:47:50.067Z,15.65
2023-02-15T07:50:17.186Z,16.20
2023-02-15T07:52:43.949Z,13.88
2023-02-15T07:55:13.834Z,13.50
2023-02-15T07:57:48.388Z,13.23
2023-02-15T08:00:17.475Z,11.90
2023-02-15T08:02:50.079Z,11.52
2023-02-15T08:05:19.305Z,15.23
2023-02-15T08:07:46.097Z,16.83
2023-02-15T08:10:32.799Z,17.55
2023-02-15T08:12:59.580Z,16.45
2023-02-15T08:15:26.492Z,17.05
2023-02-15T08:17:53.254Z,15.00
2023-02-15T08:20:20.025Z,15.35
2023-02-15T08:22:46.834Z,17.30
2023-02-15T08:25:14.088Z,17.77
2023-02-15T08:27:41.003Z,18.67
2023-02-15T08:30:09.182Z,16.35
2023-02-15T08:32:36.049Z,17.48
2023-02-15T08:35:02.756Z,18.17
2023-02-15T08:37:29.521Z,23.17
2023-02-15T08:39:56.436Z,20.70
2023-02-15T08:42:23.225Z,19.98
2023-02-15T08:44:51.600Z,21.27
2023-02-15T08:47:18.348Z,21.70
2023-02-15T08:49:45.014Z,21.58
2023-02-15T08:52:11.818Z,26.70
2023-02-15T08:54:38.569Z,23.50
2023-02-15T08:57:05.407Z,20.75
2023-02-15T08:59:32.208Z,19.85
2023-02-15T09:01:59.466Z,24.15
2023-02-15T09:04:26.237Z,24.25
2023-02-15T09:06:53.437Z,19.15
2023-02-15T09:09:20.976Z,22.33
2023-02-15T09:11:55.233Z,25.25
2023-02-15T09:14:26.119Z,23.48
2023-02-15T09:16:53.905Z,23.35
2023-02-15T09:19:22.893Z,21.90
2023-02-15T09:21:49.850Z,28.58
2023-02-15T09:24:17.951Z,23.88
2023-02-15T09:26:46.963Z,26.02
2023-02-15T09:29:14.901Z,22.05
2023-02-15T09:31:45.664Z,24.48
2023-02-15T09:34:14.695Z,25.42
2023-02-15T09:36:42.232Z,27.30
2023-02-15T09:39:16.042Z,28.20
2023-02-15T09:42:16.630Z,26.95
2023-02-15T09:45:11.272Z,23.40
2023-02-15T09:48:10.778Z,27.42
2023-02-15T09:51:25.195Z,25.90
2023-02-15T09:53:55.142Z,25.90
2023-02-15T09:56:49.144Z,29.52
2023-02-15T09:59:40.235Z,31.42
2023-02-15T10:02:33.308Z,29.35
2023-02-15T10:05:18.209Z,32.72
2023-02-15T10:07:44.884Z,32.65
2023-02-15T10:10:30.877Z,37.63
2023-02-15T10:13:09.944Z,34.95
2023-02-15T10:15:40.674Z,37.38
2023-02-15T10:18:30.352Z,37.65
2023-02-15T10:21:03.836Z,37.97
2023-02-15T10:24:02.916Z,37.55
2023-02-15T10:26:42.235Z,33.53
2023-02-15T10:29:39.415Z,38.75
2023-02-15T10:32:12.595Z,38.17
2023-02-15T10:34:44.433Z,35.97
2023-02-15T10:37:20.254Z,33.97
2023-02-15T10:39:53.451Z,32.45
2023-02-15T10:42:38.964Z,33.67
2023-02-15T10:45:57.859Z,32.70
2023-02-15T10:49:00.123Z,30.70
2023-02-15T10:51:27.012Z,28.85
2023-02-15T10:54:11.821Z,33.90
2023-02-15T10:56:53.904Z,39.72
2023-02-15T10:59:33.837Z,40.05
2023-02-15T11:02:18.937Z,35.83
2023-02-15T11:05:11.022Z,29.65
2023-02-15T11:07:44.831Z,28.00
2023-02-15T11:10:16.697Z,27.08
2023-02-15T11:12:46.965Z,30.23
2023-02-15T11:15:20.819Z,29.05
2023-02-15T11:17:59.926Z,29.60
2023-02-15T11:20:26.724Z,32.70
2023-02-15T11:22:54.495Z,37.58
2023-02-15T11:25:33.694Z,31.60
2023-02-15T11:28:04.708Z,26.98
2023-02-15T11:30:56.886Z,26.27
2023-02-15T11:33:30.238Z,29.17
2023-02-15T11:36:13.148Z,32.83
2023-02-15T11:38:44.377Z,28.88
2023-02-15T11:41:14.742Z,28.25
2023-02-15T11:44:03.734Z,26.77
2023-02-15T11:46:30.624Z,27.98
2023-02-15T11:48:57.375Z,27.58
2023-02-15T11:51:24.482Z,26.83
2023-02-15T11:53:52.570Z,26.63
2023-02-15T11:56:27.471Z,25.02
2023-02-15T11:58:59.638Z,25.02
2023-02-15T12:01:33.174Z,23.85
2023-02-15T12:04:18.126Z,22.58
2023-02-15T12:07:02.336Z,22.77
2023-02-15T12:10:15.241Z,29.90
2023-02-15T12:12:42.171Z,27.65
2023-02-15T12:15:11.769Z,26.52
2023-02-15T12:17:51.685Z,23.88
2023-02-15T12:20:18.421Z,24.85
2023-02-15T12:22:54.686Z,24.13
2023-02-15T12:25:34.268Z,23.33
2023-02-15T12:28:01.227Z,19.75
2023-02-15T12:30:33.063Z,22.25
2023-02-15T12:33:03.389Z,21.23
2023-02-15T12:35:36.817Z,21.88
2023-02-15T12:38:12.406Z,20.67
2023-02-15T12:40:41.095Z,23.50
2023-02-15T12:43:27.288Z,21.58
2023-02-15T12:45:54.232Z,23.13
2023-02-15T12:48:21.654Z,20.80
2023-02-15T12:50:57.773Z,21.70
2023-02-15T12:53:36.012Z,20.83
2023-02-15T12:56:06.187Z,19.55
2023-02-15T12:58:34.236Z,19.98
2023-02-15T13:01:09.868Z,17.88
2023-02-15T13:03:53.905Z,19.75
2023-02-15T13:06:22.685Z,19.77
2023-02-15T13:08:55.337Z,19.95
2023-02-15T13:11:35.677Z,22.30
2023-02-15T13:14:17.082Z,21.70
2023-02-15T13:16:48.005Z,22.20
2023-02-15T13:19:24.364Z,19.40
2023-02-15T13:21:54.171Z,21.95
2023-02-15T13:24:27.067Z,20.90
2023-02-15T13:27:09.407Z,21.48
2023-02-15T13:29:46.330Z,22.42
2023-02-15T13:32:18.508Z,22.08
2023-02-15T13:34:45.284Z,25.45
2023-02-15T13:37:24.599Z,22.88
2023-02-15T13:40:20.076Z,23.27
2023-02-15T13:43:10.596Z,21.80
2023-02-15T13:46:02.903Z,23.38
2023-02-15T13:48:46.047Z,22.20
2023-02-15T13:51:31.442Z,23.20
2023-02-15T13:54:10.863Z,22.55
2023-02-15T13:57:02.160Z,23.20
2023-02-15T13:59:44.290Z,23.23
2023-02-15T14:02:23.447Z,23.45
2023-02-15T14:05:23.287Z,22.80
2023-02-15T14:08:23.733Z,22.67
2023-02-15T14:11:05.555Z,23.52
2023-02-15T14:13:35.499Z,24.02
2023-02-15T14:16:18.570Z,31.33
2023-02-15T14:19:17.526Z,26.27
2023-02-15T14:21:52.532Z,30.10
2023-02-15T14:24:50.124Z,24.85
2023-02-15T14:27:21.030Z,24.23
2023-02-15T14:30:13.856Z,22.83
2023-02-15T14:32:49.413Z,21.98
2023-02-15T14:35:21.912Z,19.52
2023-02-15T14:38:10.576Z,19.10
2023-02-15T14:40:59.150Z,19.73
2023-02-15T14:43:52.970Z,20.58
2023-02-15T14:46:36.311Z,25.10
2023-02-15T14:49:16.840Z,45.88
2023-02-15T14:51:50.708Z,30.45
2023-02-15T14:54:17.533Z,20.45
2023-02-15T14:57:07.415Z,21.33
2023-02-15T14:59:46.229Z,22.85
2023-02-15T15:02:19.030Z,19.52
2023-02-15T15:05:08.129Z,22.15
2023-02-15T15:07:42.371Z,22.17
2023-02-15T15:10:18.062Z,27.05
2023-02-15T15:12:44.904Z,50.15
2023-02-15T15:15:14.845Z,38.17
2023-02-15T15:17:57.853Z,28.45
2023-02-15T15:20:28.209Z,27.02
2023-02-15T15:23:16.800Z,30.75
2023-02-15T15:25:49.162Z,25.40
2023-02-15T15:28:34.716Z,24.70
2023-02-15T15:31:20.401Z,27.00
2023-02-15T15:34:12.171Z,27.67
2023-02-15T15:36:51.144Z,25.05
2023-02-15T15:39:39.438Z,26.20
2023-02-15T15:42:32.470Z,26.02
2023-02-15T15:45:35.982Z,27.52
2023-02-15T15:48:39.217Z,28.05
2023-02-15T15:51:30.480Z,27.23
2023-02-15T15:53:58.309Z,27.10
2023-02-15T15:56:31.010Z,30.33
2023-02-15T15:59:01.930Z,30.08
2023-02-15T16:01:31.910Z,26.48
2023-02-15T16:04:00.654Z,27.42
2023-02-15T16:06:37.873Z,27.00
2023-02-15T16:09:24.406Z,31.90
2023-02-15T16:12:06.260Z,39.97
2023-02-15T16:14:37.725Z,27.05
2023-02-15T16:17:08.257Z,41.72
2023-02-15T16:19:39.207Z,64.43
2023-02-15T16:22:14.541Z,41.63
2023-02-15T16:24:59.961Z,37.13
2023-02-15T16:27:37.614Z,38.28
2023-02-15T16:30:23.509Z,37.10
2023-02-15T16:32:54.428Z,34.40
2023-02-15T16:35:23.275Z,37.58
2023-02-15T16:37:50.374Z,39.33
2023-02-15T16:40:26.422Z,32.97
2023-02-15T16:43:01.358Z,32.15
2023-02-15T16:45:29.549Z,30.63
2023-02-15T16:47:58.763Z,31.40
2023-02-15T16:50:33.060Z,29.48
2023-02-15T16:53:01.244Z,37.38
2023-02-15T16:55:33.406Z,43.67
2023-02-15T16:58:05.131Z,41.08
2023-02-15T17:00:36.256Z,44.05
2023-02-15T17:03:05.726Z,38.65
2023-02-15T17:05:53.753Z,37.47
2023-02-15T17:08:31.068Z,44.70
2023-02-15T17:11:01.311Z,37.67
2023-02-15T17:13:30.047Z,35.95
2023-02-15T17:16:00.617Z,32.75
2023-02-15T17:18:40.136Z,29.73
2023-02-15T17:21:21.883Z,28.77
2023-02-15T17:23:51.162Z,30.15
2023-02-15T17:26:32.742Z,27.85
2023-02-15T17:29:19.385Z,27.48
2023-02-15T17:31:52.029Z,27.70
2023-02-15T17:34:46.124Z,26.33
2023-02-15T17:37:26.044Z,27.60
2023-02-15T17:39:53.227Z,25.70
2023-02-15T17:42:20.051Z,25.40
2023-02-15T17:44:47.070Z,28.35
2023-02-15T17:47:21.266Z,29.15
2023-02-15T17:49:50.309Z,26.05
2023-02-15T17:52:18.522Z,26.33
2023-02-15T17:55:04.579Z,30.88
2023-02-15T17:57:31.711Z,29.42
2023-02-15T18:00:17.233Z,31.42
2023-02-15T18:03:03.393Z,32.85
2023-02-15T18:05:48.564Z,39.17
2023-02-15T18:08:36.853Z,45.38
2023-02-15T18:11:22.596Z,41.05
2023-02-15T18:13:49.413Z,50.33
2023-02-15T18:16:20.161Z,64.07
2023-02-15T18:18:47.085Z,58.30
2023-02-15T18:21:14.992Z,52.03
2023-02-15T18:23:42.673Z,56.55
2023-02-15T18:26:17.359Z,64.65
2023-02-15T18:28:44.284Z,55.53
2023-02-15T18:31:12.018Z,58.60
2023-02-15T18:33:43.798Z,51.33
2023-02-15T18:36:21.046Z,57.75
2023-02-15T18:38:47.908Z,49.25
2023-02-15T18:41:17.994Z,42.63
2023-02-15T18:43:46.000Z,42.55
2023-02-15T18:46:13.635Z,43.67
2023-02-15T18:48:40.851Z,52.92
2023-02-15T18:51:22.995Z,53.08
2023-02-15T18:53:53.074Z,47.00
2023-02-15T18:56:22.580Z,44.88
2023-02-15T18:58:49.820Z,64.80
2023-02-15T19:01:20.204Z,61.42
2023-02-15T19:03:49.325Z,48.50
2023-02-15T19:06:19.793Z,40.25
2023-02-15T19:08:49.272Z,35.28
2023-02-15T19:11:22.686Z,35.20
2023-02-15T19:13:51.218Z,50.70
2023-02-15T19:16:38.434Z,44.35
2023-02-15T19:19:07.279Z,43.25
2023-02-15T19:21:34.496Z,42.15
2023-02-15T19:24:05.566Z,47.03
2023-02-15T19:29:19.655Z,34.10
2023-02-15T19:31:46.729Z,33.88
2023-02-15T19:34:16.985Z,38.30
2023-02-15T19:36:46.686Z,34.00
2023-02-15T19:39:27.132Z,38.97
2023-02-15T19:41:54.308Z,38.53
2023-02-15T19:44:22.397Z,33.15
2023-02-15T19:46:49.584Z,29.73
2023-02-15T19:49:16.574Z,66.55
2023-02-15T19:51:43.836Z,106.95
2023-02-15T19:54:20.489Z,235.15
2023-02-15T19:56:47.439Z,118.10
2023-02-15T19:59:25.734Z,55.28
2023-02-15T20:01:53.194Z,44.05
2023-02-15T20:04:20.322Z,42.65
2023-02-15T20:06:49.456Z,32.42
2023-02-15T20:09:25.929Z,33.47
2023-02-15T20:11:54.126Z,34.00
2023-02-15T20:14:21.966Z,34.80
2023-02-15T20:16:49.678Z,34.22
2023-02-15T20:19:17.039Z,28.48
2023-02-15T20:21:46.497Z,32.83
2023-02-15T20:24:19.114Z,31.13
2023-02-15T20:26:46.453Z,29.92
2023-02-15T20:29:18.555Z,29.92
2023-02-15T20:31:46.450Z,31.15
2023-02-15T20:34:15.251Z,27.08
2023-02-15T20:36:45.230Z,25.88
2023-02-15T20:39:16.661Z,29.08
2023-02-15T20:41:51.211Z,29.98
2023-02-15T20:44:23.096Z,29.00
2023-02-15T20:46:58.478Z,33.50
2023-02-15T20:49:27.559Z,33.50
2023-02-15T20:51:56.456Z,33.28
2023-02-15T20:54:30.902Z,33.67
2023-02-15T20:57:02.242Z,34.42
2023-02-15T20:59:32.600Z,32.03
2023-02-15T21:02:23.657Z,29.20
2023-02-15T21:04:51.011Z,29.98
2023-02-15T21:07:21.096Z,31.85
2023-02-15T21:09:48.740Z,30.15
2023-02-15T21:12:18.848Z,27.63
2023-02-15T21:14:47.304Z,28.15
2023-02-15T21:17:19.143Z,27.75
2023-02-15T21:19:46.775Z,26.52
2023-02-15T21:22:16.515Z,27.13
2023-02-15T21:24:51.134Z,26.60
2023-02-15T21:27:19.275Z,26.25
2023-02-15T21:29:47.291Z,25.05
2023-02-15T21:32:17.602Z,26.77
2023-02-15T21:34:45.421Z,24.48
2023-02-15T21:37:36.702Z,24.75
2023-02-15T21:40:07.132Z,26.83
2023-02-15T21:42:53.373Z,24.55
2023-02-15T21:45:40.446Z,24.90
2023-02-15T21:48:08.400Z,25.45
2023-02-15T21:50:56.475Z,23.60
2023-02-15T21:53:30.972Z,23.65
2023-02-15T21:56:00.733Z,24.13
2023-02-15T21:58:32.307Z,25.98
2023-02-15T22:01:03.673Z,23.33
2023-02-15T22:03:38.597Z,24.92
2023-02-15T22:06:06.329Z,24.58
2023-02-15T22:08:33.692Z,21.88
2023-02-15T22:11:01.816Z,23.95
2023-02-15T22:13:35.058Z,24.35
2023-02-15T22:16:03.298Z,23.77
2023-02-15T22:18:34.103Z,24.10
2023-02-15T22:23:28.721Z,23.52
2023-02-15T22:25:59.036Z,21.75
2023-02-15T22:28:33.885Z,22.77
2023-02-15T22:31:01.612Z,22.17
2023-02-15T22:33:31.901Z,22.23
2023-02-15T22:35:59.077Z,23.77
2023-02-15T22:38:26.676Z,24.33
2023-02-15T22:40:57.367Z,24.75
2023-02-15T22:43:43.148Z,26.60
2023-02-15T22:46:19.357Z,25.35
2023-02-15T22:48:48.229Z,24.27
2023-02-15T22:51:17.861Z,26.75
2023-02-15T22:53:44.998Z,25.00
2023-02-15T22:56:40.265Z,23.15
2023-02-15T22:59:16.121Z,24.25
2023-02-15T23:01:44.590Z,23.45
2023-02-15T23:04:24.043Z,25.75
2023-02-15T23:06:53.323Z,22.42
2023-02-15T23:09:20.550Z,21.63
2023-02-15T23:11:48.322Z,22.58
2023-02-15T23:14:29.113Z,21.33
2023-02-15T23:16:56.078Z,21.83
2023-02-15T23:19:23.302Z,22.67
2023-02-15T23:21:50.325Z,21.73
2023-02-15T23:24:24.462Z,20.70
2023-02-15T23:26:51.840Z,22.35
2023-02-15T23:29:22.973Z,24.17
2023-02-15T23:31:53.041Z,23.35
2023-02-15T23:34:28.664Z,22.35
2023-02-15T23:36:56.165Z,22.20
2023-02-15T23:39:47.172Z,22.35
2023-02-15T23:42:20.431Z,22.33
2023-02-15T23:44:48.339Z,24.63
2023-02-15T23:47:42.598Z,21.27
2023-02-15T23:50:23.973Z,21.55
2023-02-15T23:52:51.977Z,24.25
2023-02-15T23:55:19.357Z,21.33
2023-02-15T23:57:47.046Z,25.67
